sensor_id;sensor_type;location;lat;lon;timestamp;P1;durP1;ratioP1;P2;durP2;ratioP2
10029;SDS011;5055;52.054;8.524;2022-08-21T00:00:56;0.20;;;0.20;;
10029;SDS011;5055;52.054;8.524;2022-08-21T00:03:25;0.20;;;0.20;;
10029;SDS011;5055;52.054;8.524;2022-08-21T00:05:54;0.20;;;0.20;;
10029;SDS011;5055;52.054;8.524;2022-08-21T00:08:23;0.20;;;0.20;;
10029;SDS011;5055;52.054;8.524;2022-08-21T00:10:52;0.20;;;0.20;;
10029;SDS011;5055;52.054;8.524;2022-08-21T00:13:20;0.20;;;0.20;;
10029;SDS011;5055;52.054;8.524;2022-08-21T00:15:49;0.20;;;0.20;;
10029;SDS011;5055;52.054;8.524;2022-08-21T00:18:20;0.17;;;0.17;;
10029;SDS011;5055;52.054;8.524;2022-08-21T00:20:49;0.20;;;0.20;;
10029;SDS011;5055;52.054;8.524;2022-08-21T00:23:18;0.20;;;0.20;;
10029;SDS011;5055;52.054;8.524;2022-08-21T00:25:47;0.20;;;0.20;;
10029;SDS011;5055;52.054;8.524;2022-08-21T00:28:15;0.20;;;0.20;;
10029;SDS011;5055;52.054;8.524;2022-08-21T00:30:44;0.10;;;0.10;;
10029;SDS011;5055;52.054;8.524;2022-08-21T00:33:13;0.20;;;0.20;;
10029;SDS011;5055;52.054;8.524;2022-08-21T00:35:42;0.10;;;0.10;;
10029;SDS011;5055;52.054;8.524;2022-08-21T00:38:11;0.17;;;0.17;;
10029;SDS011;5055;52.054;8.524;2022-08-21T00:40:42;0.13;;;0.13;;
10029;SDS011;5055;52.054;8.524;2022-08-21T00:43:14;0.17;;;0.17;;
10029;SDS011;5055;52.054;8.524;2022-08-21T00:45:44;0.20;;;0.20;;
10029;SDS011;5055;52.054;8.524;2022-08-21T00:48:13;0.20;;;0.20;;
10029;SDS011;5055;52.054;8.524;2022-08-21T00:50:46;0.20;;;0.20;;
10029;SDS011;5055;52.054;8.524;2022-08-21T00:53:19;0.20;;;0.20;;
10029;SDS011;5055;52.054;8.524;2022-08-21T00:55:49;0.20;;;0.20;;
10029;SDS011;5055;52.054;8.524;2022-08-21T00:58:23;0.20;;;0.20;;
10029;SDS011;5055;52.054;8.524;2022-08-21T01:00:53;0.20;;;0.20;;
10029;SDS011;5055;52.054;8.524;2022-08-21T01:03:22;0.20;;;0.20;;
10029;SDS011;5055;52.054;8.524;2022-08-21T01:05:53;0.20;;;0.20;;
10029;SDS011;5055;52.054;8.524;2022-08-21T01:08:22;0.20;;;0.20;;
10029;SDS011;5055;52.054;8.524;2022-08-21T01:10:52;0.20;;;0.20;;
10029;SDS011;5055;52.054;8.524;2022-08-21T01:13:21;0.20;;;0.20;;
10029;SDS011;5055;52.054;8.524;2022-08-21T01:15:53;0.20;;;0.20;;
10029;SDS011;5055;52.054;8.524;2022-08-21T01:18:26;0.20;;;0.20;;
10029;SDS011;5055;52.054;8.524;2022-08-21T01:20:59;0.20;;;0.20;;
10029;SDS011;5055;52.054;8.524;2022-08-21T01:23:31;0.20;;;0.20;;
10029;SDS011;5055;52.054;8.524;2022-08-21T01:26:00;0.20;;;0.20;;
10029;SDS011;5055;52.054;8.524;2022-08-21T01:28:31;0.20;;;0.20;;
10029;SDS011;5055;52.054;8.524;2022-08-21T01:31:04;0.10;;;0.10;;
10029;SDS011;5055;52.054;8.524;2022-08-21T01:33:35;0.30;;;0.30;;
10029;SDS011;5055;52.054;8.524;2022-08-21T01:36:05;0.20;;;0.20;;
10029;SDS011;5055;52.054;8.524;2022-08-21T01:38:34;0.20;;;0.20;;
10029;SDS011;5055;52.054;8.524;2022-08-21T01:41:03;0.20;;;0.20;;
10029;SDS011;5055;52.054;8.524;2022-08-21T01:43:41;0.20;;;0.20;;
10029;SDS011;5055;52.054;8.524;2022-08-21T01:46:22;0.20;;;0.20;;
10029;SDS011;5055;52.054;8.524;2022-08-21T01:48:50;0.20;;;0.20;;
10029;SDS011;5055;52.054;8.524;2022-08-21T01:51:20;0.20;;;0.20;;
10029;SDS011;5055;52.054;8.524;2022-08-21T01:53:49;0.20;;;0.20;;
10029;SDS011;5055;52.054;8.524;2022-08-21T01:56:18;0.20;;;0.20;;
10029;SDS011;5055;52.054;8.524;2022-08-21T01:58:47;0.20;;;0.20;;
10029;SDS011;5055;52.054;8.524;2022-08-21T02:01:15;0.20;;;0.20;;
10029;SDS011;5055;52.054;8.524;2022-08-21T02:03:44;0.20;;;0.20;;
10029;SDS011;5055;52.054;8.524;2022-08-21T02:06:13;0.20;;;0.20;;
10029;SDS011;5055;52.054;8.524;2022-08-21T02:08:45;0.20;;;0.20;;
10029;SDS011;5055;52.054;8.524;2022-08-21T02:11:14;0.20;;;0.20;;
10029;SDS011;5055;52.054;8.524;2022-08-21T02:13:43;0.20;;;0.20;;
10029;SDS011;5055;52.054;8.524;2022-08-21T02:16:11;0.20;;;0.20;;
10029;SDS011;5055;52.054;8.524;2022-08-21T02:18:45;0.20;;;0.20;;
10029;SDS011;5055;52.054;8.524;2022-08-21T02:21:13;0.10;;;0.10;;
10029;SDS011;5055;52.054;8.524;2022-08-21T02:23:42;0.17;;;0.17;;
10029;SDS011;5055;52.054;8.524;2022-08-21T02:26:12;0.20;;;0.20;;
10029;SDS011;5055;52.054;8.524;2022-08-21T02:28:40;0.20;;;0.20;;
10029;SDS011;5055;52.054;8.524;2022-08-21T02:31:09;0.20;;;0.20;;
10029;SDS011;5055;52.054;8.524;2022-08-21T02:33:38;0.10;;;0.10;;
10029;SDS011;5055;52.054;8.524;2022-08-21T02:36:08;0.20;;;0.20;;
10029;SDS011;5055;52.054;8.524;2022-08-21T02:38:37;0.20;;;0.20;;
10029;SDS011;5055;52.054;8.524;2022-08-21T02:41:09;0.20;;;0.20;;
10029;SDS011;5055;52.054;8.524;2022-08-21T02:43:40;0.20;;;0.20;;
10029;SDS011;5055;52.054;8.524;2022-08-21T02:46:10;0.20;;;0.20;;
10029;SDS011;5055;52.054;8.524;2022-08-21T02:48:41;0.20;;;0.20;;
10029;SDS011;5055;52.054;8.524;2022-08-21T02:51:12;0.13;;;0.13;;
10029;SDS011;5055;52.054;8.524;2022-08-21T02:53:42;0.30;;;0.30;;
10029;SDS011;5055;52.054;8.524;2022-08-21T02:56:12;0.23;;;0.23;;
10029;SDS011;5055;52.054;8.524;2022-08-21T02:58:43;0.20;;;0.20;;
10029;SDS011;5055;52.054;8.524;2022-08-21T03:01:14;0.20;;;0.20;;
10029;SDS011;5055;52.054;8.524;2022-08-21T03:03:44;0.20;;;0.20;;
10029;SDS011;5055;52.054;8.524;2022-08-21T03:06:16;0.20;;;0.20;;
10029;SDS011;5055;52.054;8.524;2022-08-21T03:08:49;0.20;;;0.20;;
10029;SDS011;5055;52.054;8.524;2022-08-21T03:11:17;0.20;;;0.20;;
10029;SDS011;5055;52.054;8.524;2022-08-21T03:13:51;0.20;;;0.20;;
10029;SDS011;5055;52.054;8.524;2022-08-21T03:16:20;0.20;;;0.20;;
10029;SDS011;5055;52.054;8.524;2022-08-21T03:18:48;0.20;;;0.20;;
10029;SDS011;5055;52.054;8.524;2022-08-21T03:21:16;0.20;;;0.20;;
10029;SDS011;5055;52.054;8.524;2022-08-21T03:23:45;0.20;;;0.20;;
10029;SDS011;5055;52.054;8.524;2022-08-21T03:26:15;0.20;;;0.20;;
10029;SDS011;5055;52.054;8.524;2022-08-21T03:28:45;0.20;;;0.20;;
10029;SDS011;5055;52.054;8.524;2022-08-21T03:31:14;0.20;;;0.20;;
10029;SDS011;5055;52.054;8.524;2022-08-21T03:33:44;0.20;;;0.20;;
10029;SDS011;5055;52.054;8.524;2022-08-21T03:36:12;0.23;;;0.23;;
10029;SDS011;5055;52.054;8.524;2022-08-21T03:38:41;0.20;;;0.20;;
10029;SDS011;5055;52.054;8.524;2022-08-21T03:41:09;0.20;;;0.20;;
10029;SDS011;5055;52.054;8.524;2022-08-21T03:43:37;0.20;;;0.20;;
10029;SDS011;5055;52.054;8.524;2022-08-21T03:46:07;0.20;;;0.20;;
10029;SDS011;5055;52.054;8.524;2022-08-21T03:48:37;0.20;;;0.20;;
10029;SDS011;5055;52.054;8.524;2022-08-21T03:51:06;0.20;;;0.20;;
10029;SDS011;5055;52.054;8.524;2022-08-21T03:53:35;0.10;;;0.10;;
10029;SDS011;5055;52.054;8.524;2022-08-21T03:56:04;0.20;;;0.20;;
10029;SDS011;5055;52.054;8.524;2022-08-21T03:58:33;0.20;;;0.20;;
10029;SDS011;5055;52.054;8.524;2022-08-21T04:01:02;0.20;;;0.20;;
10029;SDS011;5055;52.054;8.524;2022-08-21T04:03:33;0.30;;;0.30;;
10029;SDS011;5055;52.054;8.524;2022-08-21T04:06:05;0.20;;;0.20;;
10029;SDS011;5055;52.054;8.524;2022-08-21T04:08:34;0.20;;;0.20;;
10029;SDS011;5055;52.054;8.524;2022-08-21T04:11:03;0.20;;;0.20;;
10029;SDS011;5055;52.054;8.524;2022-08-21T04:13:32;0.20;;;0.20;;
10029;SDS011;5055;52.054;8.524;2022-08-21T04:16:10;0.20;;;0.20;;
10029;SDS011;5055;52.054;8.524;2022-08-21T04:18:38;0.20;;;0.20;;
10029;SDS011;5055;52.054;8.524;2022-08-21T04:21:08;0.20;;;0.20;;
10029;SDS011;5055;52.054;8.524;2022-08-21T04:23:39;0.30;;;0.30;;
10029;SDS011;5055;52.054;8.524;2022-08-21T04:26:07;0.30;;;0.30;;
10029;SDS011;5055;52.054;8.524;2022-08-21T04:28:36;0.23;;;0.23;;
10029;SDS011;5055;52.054;8.524;2022-08-21T04:31:04;0.20;;;0.20;;
10029;SDS011;5055;52.054;8.524;2022-08-21T04:33:36;0.10;;;0.10;;
10029;SDS011;5055;52.054;8.524;2022-08-21T04:36:04;0.20;;;0.20;;
10029;SDS011;5055;52.054;8.524;2022-08-21T04:38:35;0.17;;;0.17;;
10029;SDS011;5055;52.054;8.524;2022-08-21T04:41:09;0.30;;;0.30;;
10029;SDS011;5055;52.054;8.524;2022-08-21T04:43:38;0.20;;;0.20;;
10029;SDS011;5055;52.054;8.524;2022-08-21T04:46:07;0.20;;;0.20;;
10029;SDS011;5055;52.054;8.524;2022-08-21T04:48:39;0.20;;;0.20;;
10029;SDS011;5055;52.054;8.524;2022-08-21T04:51:10;0.10;;;0.10;;
10029;SDS011;5055;52.054;8.524;2022-08-21T04:53:46;0.20;;;0.20;;
10029;SDS011;5055;52.054;8.524;2022-08-21T04:56:21;0.20;;;0.20;;
10029;SDS011;5055;52.054;8.524;2022-08-21T04:58:53;0.20;;;0.20;;
10029;SDS011;5055;52.054;8.524;2022-08-21T05:01:25;0.20;;;0.20;;
10029;SDS011;5055;52.054;8.524;2022-08-21T05:03:57;0.23;;;0.23;;
10029;SDS011;5055;52.054;8.524;2022-08-21T05:06:27;0.20;;;0.20;;
10029;SDS011;5055;52.054;8.524;2022-08-21T05:08:59;0.20;;;0.20;;
10029;SDS011;5055;52.054;8.524;2022-08-21T05:11:29;0.23;;;0.23;;
10029;SDS011;5055;52.054;8.524;2022-08-21T05:13:58;0.20;;;0.20;;
10029;SDS011;5055;52.054;8.524;2022-08-21T05:16:27;0.20;;;0.20;;
10029;SDS011;5055;52.054;8.524;2022-08-21T05:19:02;0.13;;;0.13;;
10029;SDS011;5055;52.054;8.524;2022-08-21T05:21:31;0.20;;;0.20;;
10029;SDS011;5055;52.054;8.524;2022-08-21T05:24:02;0.13;;;0.13;;
10029;SDS011;5055;52.054;8.524;2022-08-21T05:26:30;0.13;;;0.13;;
10029;SDS011;5055;52.054;8.524;2022-08-21T05:29:10;0.20;;;0.20;;
10029;SDS011;5055;52.054;8.524;2022-08-21T05:31:40;0.20;;;0.20;;
10029;SDS011;5055;52.054;8.524;2022-08-21T05:34:08;0.20;;;0.20;;
10029;SDS011;5055;52.054;8.524;2022-08-21T05:36:41;0.20;;;0.20;;
10029;SDS011;5055;52.054;8.524;2022-08-21T05:39:11;0.20;;;0.20;;
10029;SDS011;5055;52.054;8.524;2022-08-21T05:41:40;0.20;;;0.20;;
10029;SDS011;5055;52.054;8.524;2022-08-21T05:44:08;0.20;;;0.20;;
10029;SDS011;5055;52.054;8.524;2022-08-21T05:46:37;0.20;;;0.20;;
10029;SDS011;5055;52.054;8.524;2022-08-21T05:49:06;0.20;;;0.20;;
10029;SDS011;5055;52.054;8.524;2022-08-21T05:51:34;0.20;;;0.20;;
10029;SDS011;5055;52.054;8.524;2022-08-21T05:54:03;0.20;;;0.20;;
10029;SDS011;5055;52.054;8.524;2022-08-21T05:56:33;0.20;;;0.20;;
10029;SDS011;5055;52.054;8.524;2022-08-21T05:59:02;0.20;;;0.20;;
10029;SDS011;5055;52.054;8.524;2022-08-21T06:01:34;0.20;;;0.20;;
10029;SDS011;5055;52.054;8.524;2022-08-21T06:04:03;0.20;;;0.20;;
10029;SDS011;5055;52.054;8.524;2022-08-21T06:06:32;0.20;;;0.20;;
10029;SDS011;5055;52.054;8.524;2022-08-21T06:09:01;0.20;;;0.20;;
10029;SDS011;5055;52.054;8.524;2022-08-21T06:11:31;0.17;;;0.17;;
10029;SDS011;5055;52.054;8.524;2022-08-21T06:14:02;0.20;;;0.20;;
10029;SDS011;5055;52.054;8.524;2022-08-21T06:16:33;0.20;;;0.20;;
10029;SDS011;5055;52.054;8.524;2022-08-21T06:19:01;0.10;;;0.10;;
10029;SDS011;5055;52.054;8.524;2022-08-21T06:21:30;0.17;;;0.17;;
10029;SDS011;5055;52.054;8.524;2022-08-21T06:23:58;0.10;;;0.10;;
10029;SDS011;5055;52.054;8.524;2022-08-21T06:26:27;0.20;;;0.20;;
10029;SDS011;5055;52.054;8.524;2022-08-21T06:28:55;0.20;;;0.20;;
10029;SDS011;5055;52.054;8.524;2022-08-21T06:31:26;0.10;;;0.10;;
10029;SDS011;5055;52.054;8.524;2022-08-21T06:33:56;0.20;;;0.20;;
10029;SDS011;5055;52.054;8.524;2022-08-21T06:36:25;0.10;;;0.10;;
10029;SDS011;5055;52.054;8.524;2022-08-21T06:38:53;0.10;;;0.10;;
10029;SDS011;5055;52.054;8.524;2022-08-21T06:41:23;0.10;;;0.10;;
10029;SDS011;5055;52.054;8.524;2022-08-21T06:43:52;0.10;;;0.10;;
10029;SDS011;5055;52.054;8.524;2022-08-21T06:46:28;0.20;;;0.20;;
10029;SDS011;5055;52.054;8.524;2022-08-21T06:48:57;0.10;;;0.10;;
10029;SDS011;5055;52.054;8.524;2022-08-21T06:51:26;0.10;;;0.10;;
10029;SDS011;5055;52.054;8.524;2022-08-21T06:53:55;0.20;;;0.20;;
10029;SDS011;5055;52.054;8.524;2022-08-21T06:56:24;0.10;;;0.10;;
10029;SDS011;5055;52.054;8.524;2022-08-21T06:58:53;0.10;;;0.10;;
10029;SDS011;5055;52.054;8.524;2022-08-21T07:01:23;0.10;;;0.10;;
10029;SDS011;5055;52.054;8.524;2022-08-21T07:03:54;0.10;;;0.10;;
10029;SDS011;5055;52.054;8.524;2022-08-21T07:06:23;0.10;;;0.10;;
10029;SDS011;5055;52.054;8.524;2022-08-21T07:08:52;0.20;;;0.20;;
10029;SDS011;5055;52.054;8.524;2022-08-21T07:11:24;0.10;;;0.10;;
10029;SDS011;5055;52.054;8.524;2022-08-21T07:13:53;0.10;;;0.10;;
10029;SDS011;5055;52.054;8.524;2022-08-21T07:16:22;0.10;;;0.10;;
10029;SDS011;5055;52.054;8.524;2022-08-21T07:18:52;0.17;;;0.17;;
10029;SDS011;5055;52.054;8.524;2022-08-21T07:21:21;0.10;;;0.10;;
10029;SDS011;5055;52.054;8.524;2022-08-21T07:23:51;0.10;;;0.10;;
10029;SDS011;5055;52.054;8.524;2022-08-21T07:26:21;0.10;;;0.10;;
10029;SDS011;5055;52.054;8.524;2022-08-21T07:28:52;0.10;;;0.10;;
10029;SDS011;5055;52.054;8.524;2022-08-21T07:31:22;0.10;;;0.10;;
10029;SDS011;5055;52.054;8.524;2022-08-21T07:33:53;0.20;;;0.20;;
10029;SDS011;5055;52.054;8.524;2022-08-21T07:36:22;0.10;;;0.10;;
10029;SDS011;5055;52.054;8.524;2022-08-21T07:38:51;0.10;;;0.10;;
10029;SDS011;5055;52.054;8.524;2022-08-21T07:41:20;0.10;;;0.10;;
10029;SDS011;5055;52.054;8.524;2022-08-21T07:43:50;0.10;;;0.10;;
10029;SDS011;5055;52.054;8.524;2022-08-21T07:46:19;0.10;;;0.10;;
10029;SDS011;5055;52.054;8.524;2022-08-21T07:48:48;0.20;;;0.20;;
10029;SDS011;5055;52.054;8.524;2022-08-21T07:51:20;0.10;;;0.10;;
10029;SDS011;5055;52.054;8.524;2022-08-21T07:53:54;0.10;;;0.10;;
10029;SDS011;5055;52.054;8.524;2022-08-21T07:56:26;0.10;;;0.10;;
10029;SDS011;5055;52.054;8.524;2022-08-21T07:58:56;0.10;;;0.10;;
10029;SDS011;5055;52.054;8.524;2022-08-21T08:01:24;0.10;;;0.10;;
10029;SDS011;5055;52.054;8.524;2022-08-21T08:03:53;0.10;;;0.10;;
10029;SDS011;5055;52.054;8.524;2022-08-21T08:06:24;0.10;;;0.10;;
10029;SDS011;5055;52.054;8.524;2022-08-21T08:08:52;0.10;;;0.10;;
10029;SDS011;5055;52.054;8.524;2022-08-21T08:11:20;0.10;;;0.10;;
10029;SDS011;5055;52.054;8.524;2022-08-21T08:13:49;0.10;;;0.10;;
10029;SDS011;5055;52.054;8.524;2022-08-21T08:16:19;0.10;;;0.10;;
10029;SDS011;5055;52.054;8.524;2022-08-21T08:18:47;0.10;;;0.10;;
10029;SDS011;5055;52.054;8.524;2022-08-21T08:21:17;0.10;;;0.10;;
10029;SDS011;5055;52.054;8.524;2022-08-21T08:23:48;0.10;;;0.10;;
10029;SDS011;5055;52.054;8.524;2022-08-21T08:26:17;0.10;;;0.10;;
10029;SDS011;5055;52.054;8.524;2022-08-21T08:28:45;0.10;;;0.10;;
10029;SDS011;5055;52.054;8.524;2022-08-21T08:31:14;0.10;;;0.10;;
10029;SDS011;5055;52.054;8.524;2022-08-21T08:33:42;0.10;;;0.10;;
10029;SDS011;5055;52.054;8.524;2022-08-21T08:36:14;0.10;;;0.10;;
10029;SDS011;5055;52.054;8.524;2022-08-21T08:38:45;0.10;;;0.10;;
10029;SDS011;5055;52.054;8.524;2022-08-21T08:41:16;0.10;;;0.10;;
10029;SDS011;5055;52.054;8.524;2022-08-21T08:43:49;0.10;;;0.10;;
10029;SDS011;5055;52.054;8.524;2022-08-21T08:46:20;0.10;;;0.10;;
10029;SDS011;5055;52.054;8.524;2022-08-21T08:49:00;0.10;;;0.10;;
10029;SDS011;5055;52.054;8.524;2022-08-21T08:51:36;0.10;;;0.10;;
10029;SDS011;5055;52.054;8.524;2022-08-21T08:54:11;0.10;;;0.10;;
10029;SDS011;5055;52.054;8.524;2022-08-21T08:56:44;0.20;;;0.20;;
10029;SDS011;5055;52.054;8.524;2022-08-21T08:59:15;0.10;;;0.10;;
10029;SDS011;5055;52.054;8.524;2022-08-21T09:01:45;0.10;;;0.10;;
10029;SDS011;5055;52.054;8.524;2022-08-21T09:04:15;0.10;;;0.10;;
10029;SDS011;5055;52.054;8.524;2022-08-21T09:06:53;0.10;;;0.10;;
10029;SDS011;5055;52.054;8.524;2022-08-21T09:09:31;0.10;;;0.10;;
10029;SDS011;5055;52.054;8.524;2022-08-21T09:12:11;0.10;;;0.10;;
10029;SDS011;5055;52.054;8.524;2022-08-21T09:14:50;0.10;;;0.10;;
10029;SDS011;5055;52.054;8.524;2022-08-21T09:17:30;0.10;;;0.10;;
10029;SDS011;5055;52.054;8.524;2022-08-21T09:20:08;0.10;;;0.10;;
10029;SDS011;5055;52.054;8.524;2022-08-21T09:22:48;0.10;;;0.10;;
10029;SDS011;5055;52.054;8.524;2022-08-21T09:25:27;0.10;;;0.10;;
10029;SDS011;5055;52.054;8.524;2022-08-21T09:28:01;0.10;;;0.10;;
10029;SDS011;5055;52.054;8.524;2022-08-21T09:30:31;0.10;;;0.10;;
10029;SDS011;5055;52.054;8.524;2022-08-21T09:33:00;0.10;;;0.10;;
10029;SDS011;5055;52.054;8.524;2022-08-21T09:35:28;0.10;;;0.10;;
10029;SDS011;5055;52.054;8.524;2022-08-21T09:38:00;0.10;;;0.10;;
10029;SDS011;5055;52.054;8.524;2022-08-21T09:40:33;0.10;;;0.10;;
10029;SDS011;5055;52.054;8.524;2022-08-21T09:43:16;0.10;;;0.10;;
10029;SDS011;5055;52.054;8.524;2022-08-21T09:45:47;0.10;;;0.10;;
10029;SDS011;5055;52.054;8.524;2022-08-21T09:48:18;0.10;;;0.10;;
10029;SDS011;5055;52.054;8.524;2022-08-21T09:50:52;0.10;;;0.10;;
10029;SDS011;5055;52.054;8.524;2022-08-21T09:53:32;0.10;;;0.10;;
10029;SDS011;5055;52.054;8.524;2022-08-21T09:56:02;0.10;;;0.10;;
10029;SDS011;5055;52.054;8.524;2022-08-21T09:58:51;0.10;;;0.10;;
10029;SDS011;5055;52.054;8.524;2022-08-21T10:01:21;0.10;;;0.10;;
10029;SDS011;5055;52.054;8.524;2022-08-21T10:04:01;0.10;;;0.10;;
10029;SDS011;5055;52.054;8.524;2022-08-21T10:06:31;0.10;;;0.10;;
10029;SDS011;5055;52.054;8.524;2022-08-21T10:09:05;0.20;;;0.20;;
10029;SDS011;5055;52.054;8.524;2022-08-21T10:11:45;0.10;;;0.10;;
10029;SDS011;5055;52.054;8.524;2022-08-21T10:14:25;0.10;;;0.10;;
10029;SDS011;5055;52.054;8.524;2022-08-21T10:17:11;0.20;;;0.20;;
10029;SDS011;5055;52.054;8.524;2022-08-21T10:19:48;0.10;;;0.10;;
10029;SDS011;5055;52.054;8.524;2022-08-21T10:22:27;0.10;;;0.10;;
10029;SDS011;5055;52.054;8.524;2022-08-21T10:25:10;0.10;;;0.10;;
10029;SDS011;5055;52.054;8.524;2022-08-21T10:27:47;0.10;;;0.10;;
10029;SDS011;5055;52.054;8.524;2022-08-21T10:30:29;0.10;;;0.10;;
10029;SDS011;5055;52.054;8.524;2022-08-21T10:33:08;0.10;;;0.10;;
10029;SDS011;5055;52.054;8.524;2022-08-21T10:35:45;0.10;;;0.10;;
10029;SDS011;5055;52.054;8.524;2022-08-21T10:41:44;0.10;;;0.10;;
10029;SDS011;5055;52.054;8.524;2022-08-21T10:44:30;0.10;;;0.10;;
10029;SDS011;5055;52.054;8.524;2022-08-21T10:47:08;0.20;;;0.20;;
10029;SDS011;5055;52.054;8.524;2022-08-21T10:49:45;0.10;;;0.10;;
10029;SDS011;5055;52.054;8.524;2022-08-21T10:52:36;0.10;;;0.10;;
10029;SDS011;5055;52.054;8.524;2022-08-21T10:55:16;0.10;;;0.10;;
10029;SDS011;5055;52.054;8.524;2022-08-21T10:57:49;0.10;;;0.10;;
10029;SDS011;5055;52.054;8.524;2022-08-21T11:00:20;0.10;;;0.10;;
10029;SDS011;5055;52.054;8.524;2022-08-21T11:02:52;0.10;;;0.10;;
10029;SDS011;5055;52.054;8.524;2022-08-21T11:05:27;0.10;;;0.10;;
10029;SDS011;5055;52.054;8.524;2022-08-21T11:08:01;0.10;;;0.10;;
10029;SDS011;5055;52.054;8.524;2022-08-21T11:10:36;0.10;;;0.10;;
10029;SDS011;5055;52.054;8.524;2022-08-21T11:13:26;0.10;;;0.10;;
10029;SDS011;5055;52.054;8.524;2022-08-21T11:16:02;0.10;;;0.10;;
10029;SDS011;5055;52.054;8.524;2022-08-21T11:18:37;0.10;;;0.10;;
10029;SDS011;5055;52.054;8.524;2022-08-21T11:21:15;0.17;;;0.17;;
10029;SDS011;5055;52.054;8.524;2022-08-21T11:24:08;0.10;;;0.10;;
10029;SDS011;5055;52.054;8.524;2022-08-21T11:26:54;0.10;;;0.10;;
10029;SDS011;5055;52.054;8.524;2022-08-21T11:29:29;0.20;;;0.20;;
10029;SDS011;5055;52.054;8.524;2022-08-21T11:32:10;0.10;;;0.10;;
10029;SDS011;5055;52.054;8.524;2022-08-21T11:35:00;0.10;;;0.10;;
10029;SDS011;5055;52.054;8.524;2022-08-21T11:37:40;0.10;;;0.10;;
10029;SDS011;5055;52.054;8.524;2022-08-21T11:40:26;0.10;;;0.10;;
10029;SDS011;5055;52.054;8.524;2022-08-21T11:43:07;0.10;;;0.10;;
10029;SDS011;5055;52.054;8.524;2022-08-21T11:45:47;0.10;;;0.10;;
10029;SDS011;5055;52.054;8.524;2022-08-21T11:48:25;0.10;;;0.10;;
10029;SDS011;5055;52.054;8.524;2022-08-21T11:51:04;0.10;;;0.10;;
10029;SDS011;5055;52.054;8.524;2022-08-21T11:53:39;0.10;;;0.10;;
10029;SDS011;5055;52.054;8.524;2022-08-21T11:56:21;0.10;;;0.10;;
10029;SDS011;5055;52.054;8.524;2022-08-21T11:58:54;0.10;;;0.10;;
10029;SDS011;5055;52.054;8.524;2022-08-21T12:01:26;0.10;;;0.10;;
10029;SDS011;5055;52.054;8.524;2022-08-21T12:04:00;0.10;;;0.10;;
10029;SDS011;5055;52.054;8.524;2022-08-21T12:06:36;0.10;;;0.10;;
10029;SDS011;5055;52.054;8.524;2022-08-21T12:09:08;0.10;;;0.10;;
10029;SDS011;5055;52.054;8.524;2022-08-21T12:11:59;0.10;;;0.10;;
10029;SDS011;5055;52.054;8.524;2022-08-21T12:14:42;0.10;;;0.10;;
10029;SDS011;5055;52.054;8.524;2022-08-21T12:17:17;0.10;;;0.10;;
10029;SDS011;5055;52.054;8.524;2022-08-21T12:19:57;0.10;;;0.10;;
10029;SDS011;5055;52.054;8.524;2022-08-21T12:22:37;0.20;;;0.20;;
10029;SDS011;5055;52.054;8.524;2022-08-21T12:25:08;0.10;;;0.10;;
10029;SDS011;5055;52.054;8.524;2022-08-21T12:27:47;0.10;;;0.10;;
10029;SDS011;5055;52.054;8.524;2022-08-21T12:30:20;0.10;;;0.10;;
10029;SDS011;5055;52.054;8.524;2022-08-21T12:32:56;0.13;;;0.13;;
10029;SDS011;5055;52.054;8.524;2022-08-21T12:35:31;0.10;;;0.10;;
10029;SDS011;5055;52.054;8.524;2022-08-21T12:38:07;0.10;;;0.10;;
10029;SDS011;5055;52.054;8.524;2022-08-21T12:40:50;0.10;;;0.10;;
10029;SDS011;5055;52.054;8.524;2022-08-21T12:43:24;0.10;;;0.10;;
10029;SDS011;5055;52.054;8.524;2022-08-21T12:45:56;0.10;;;0.10;;
10029;SDS011;5055;52.054;8.524;2022-08-21T12:48:29;0.10;;;0.10;;
10029;SDS011;5055;52.054;8.524;2022-08-21T12:51:08;0.10;;;0.10;;
10029;SDS011;5055;52.054;8.524;2022-08-21T12:53:41;0.10;;;0.10;;
10029;SDS011;5055;52.054;8.524;2022-08-21T12:56:14;0.10;;;0.10;;
10029;SDS011;5055;52.054;8.524;2022-08-21T12:58:46;0.10;;;0.10;;
10029;SDS011;5055;52.054;8.524;2022-08-21T13:01:31;0.10;;;0.10;;
10029;SDS011;5055;52.054;8.524;2022-08-21T13:04:08;0.10;;;0.10;;
10029;SDS011;5055;52.054;8.524;2022-08-21T13:06:41;0.10;;;0.10;;
10029;SDS011;5055;52.054;8.524;2022-08-21T13:09:14;0.10;;;0.10;;
10029;SDS011;5055;52.054;8.524;2022-08-21T13:11:46;0.10;;;0.10;;
10029;SDS011;5055;52.054;8.524;2022-08-21T13:14:20;0.10;;;0.10;;
10029;SDS011;5055;52.054;8.524;2022-08-21T13:16:53;0.10;;;0.10;;
10029;SDS011;5055;52.054;8.524;2022-08-21T13:19:23;0.10;;;0.10;;
10029;SDS011;5055;52.054;8.524;2022-08-21T13:21:52;0.10;;;0.10;;
10029;SDS011;5055;52.054;8.524;2022-08-21T13:24:24;0.00;;;0.00;;
10029;SDS011;5055;52.054;8.524;2022-08-21T13:27:18;0.10;;;0.10;;
10029;SDS011;5055;52.054;8.524;2022-08-21T13:29:49;0.10;;;0.10;;
10029;SDS011;5055;52.054;8.524;2022-08-21T13:32:29;0.10;;;0.10;;
10029;SDS011;5055;52.054;8.524;2022-08-21T13:35:07;0.10;;;0.10;;
10029;SDS011;5055;52.054;8.524;2022-08-21T13:37:40;0.10;;;0.10;;
10029;SDS011;5055;52.054;8.524;2022-08-21T13:40:14;0.10;;;0.10;;
10029;SDS011;5055;52.054;8.524;2022-08-21T13:42:46;0.10;;;0.10;;
10029;SDS011;5055;52.054;8.524;2022-08-21T13:45:18;0.10;;;0.10;;
10029;SDS011;5055;52.054;8.524;2022-08-21T13:47:52;0.10;;;0.10;;
10029;SDS011;5055;52.054;8.524;2022-08-21T13:50:22;0.10;;;0.10;;
10029;SDS011;5055;52.054;8.524;2022-08-21T13:52:58;0.10;;;0.10;;
10029;SDS011;5055;52.054;8.524;2022-08-21T13:55:38;0.10;;;0.10;;
10029;SDS011;5055;52.054;8.524;2022-08-21T13:58:09;0.10;;;0.10;;
10029;SDS011;5055;52.054;8.524;2022-08-21T14:00:43;0.10;;;0.10;;
10029;SDS011;5055;52.054;8.524;2022-08-21T14:03:14;0.10;;;0.10;;
10029;SDS011;5055;52.054;8.524;2022-08-21T14:06:10;0.10;;;0.10;;
10029;SDS011;5055;52.054;8.524;2022-08-21T14:08:40;0.10;;;0.10;;
10029;SDS011;5055;52.054;8.524;2022-08-21T14:11:13;0.10;;;0.10;;
10029;SDS011;5055;52.054;8.524;2022-08-21T14:13:44;0.10;;;0.10;;
10029;SDS011;5055;52.054;8.524;2022-08-21T14:16:17;0.10;;;0.10;;
10029;SDS011;5055;52.054;8.524;2022-08-21T14:18:50;0.08;;;0.08;;
10029;SDS011;5055;52.054;8.524;2022-08-21T14:21:24;0.10;;;0.10;;
10029;SDS011;5055;52.054;8.524;2022-08-21T14:24:01;0.10;;;0.10;;
10029;SDS011;5055;52.054;8.524;2022-08-21T14:26:36;0.10;;;0.10;;
10029;SDS011;5055;52.054;8.524;2022-08-21T14:29:14;0.10;;;0.10;;
10029;SDS011;5055;52.054;8.524;2022-08-21T14:31:48;0.10;;;0.10;;
10029;SDS011;5055;52.054;8.524;2022-08-21T14:34:18;0.10;;;0.10;;
10029;SDS011;5055;52.054;8.524;2022-08-21T14:36:49;0.10;;;0.10;;
10029;SDS011;5055;52.054;8.524;2022-08-21T14:39:18;0.10;;;0.10;;
10029;SDS011;5055;52.054;8.524;2022-08-21T14:41:49;0.10;;;0.10;;
10029;SDS011;5055;52.054;8.524;2022-08-21T14:44:21;0.00;;;0.00;;
10029;SDS011;5055;52.054;8.524;2022-08-21T14:46:50;0.10;;;0.10;;
10029;SDS011;5055;52.054;8.524;2022-08-21T14:49:23;0.10;;;0.10;;
10029;SDS011;5055;52.054;8.524;2022-08-21T14:51:54;0.00;;;0.00;;
10029;SDS011;5055;52.054;8.524;2022-08-21T14:54:26;0.10;;;0.10;;
10029;SDS011;5055;52.054;8.524;2022-08-21T14:57:00;0.10;;;0.10;;
10029;SDS011;5055;52.054;8.524;2022-08-21T14:59:32;0.10;;;0.10;;
10029;SDS011;5055;52.054;8.524;2022-08-21T15:02:02;0.10;;;0.10;;
10029;SDS011;5055;52.054;8.524;2022-08-21T15:04:32;0.05;;;0.05;;
10029;SDS011;5055;52.054;8.524;2022-08-21T15:07:02;0.00;;;0.00;;
10029;SDS011;5055;52.054;8.524;2022-08-21T15:09:33;0.10;;;0.10;;
10029;SDS011;5055;52.054;8.524;2022-08-21T15:12:03;0.10;;;0.10;;
10029;SDS011;5055;52.054;8.524;2022-08-21T15:14:34;0.10;;;0.10;;
10029;SDS011;5055;52.054;8.524;2022-08-21T15:17:07;0.10;;;0.10;;
10029;SDS011;5055;52.054;8.524;2022-08-21T15:19:37;0.10;;;0.10;;
10029;SDS011;5055;52.054;8.524;2022-08-21T15:22:06;0.10;;;0.10;;
10029;SDS011;5055;52.054;8.524;2022-08-21T15:24:41;0.10;;;0.10;;
10029;SDS011;5055;52.054;8.524;2022-08-21T15:27:11;0.10;;;0.10;;
10029;SDS011;5055;52.054;8.524;2022-08-21T15:29:42;0.10;;;0.10;;
10029;SDS011;5055;52.054;8.524;2022-08-21T15:32:16;0.10;;;0.10;;
10029;SDS011;5055;52.054;8.524;2022-08-21T15:34:46;0.10;;;0.10;;